sensor_id;sensor_type;location;lat;lon;timestamp;P1;durP1;ratioP1;P2;durP2;ratioP2
59756;SDS011;45631;51.962;5.974;2023-07-30T00:00:48;9.57;;;3.63;;
59756;SDS011;45631;51.962;5.974;2023-07-30T00:03:17;9.00;;;3.45;;
59756;SDS011;45631;51.962;5.974;2023-07-30T00:05:51;10.35;;;3.63;;
59756;SDS011;45631;51.962;5.974;2023-07-30T00:08:22;11.98;;;4.22;;
59756;SDS011;45631;51.962;5.974;2023-07-30T00:10:51;8.18;;;3.47;;
59756;SDS011;45631;51.962;5.974;2023-07-30T00:13:19;11.38;;;3.75;;
59756;SDS011;45631;51.962;5.974;2023-07-30T00:15:48;9.73;;;3.90;;
59756;SDS011;45631;51.962;5.974;2023-07-30T00:18:16;11.32;;;4.28;;
59756;SDS011;45631;51.962;5.974;2023-07-30T00:20:45;9.60;;;3.88;;
59756;SDS011;45631;51.962;5.974;2023-07-30T00:23:13;9.32;;;3.22;;
59756;SDS011;45631;51.962;5.974;2023-07-30T00:25:43;11.18;;;3.83;;
59756;SDS011;45631;51.962;5.974;2023-07-30T00:28:12;11.40;;;3.70;;
59756;SDS011;45631;51.962;5.974;2023-07-30T00:30:40;9.63;;;3.90;;
59756;SDS011;45631;51.962;5.974;2023-07-30T00:33:09;11.65;;;3.50;;
59756;SDS011;45631;51.962;5.974;2023-07-30T00:35:38;9.13;;;3.53;;
59756;SDS011;45631;51.962;5.974;2023-07-30T00:38:06;9.38;;;3.30;;
59756;SDS011;45631;51.962;5.974;2023-07-30T00:40:39;12.70;;;3.50;;
59756;SDS011;45631;51.962;5.974;2023-07-30T00:43:09;11.70;;;3.28;;
59756;SDS011;45631;51.962;5.974;2023-07-30T00:45:38;9.05;;;3.28;;
59756;SDS011;45631;51.962;5.974;2023-07-30T00:48:10;9.53;;;3.90;;
59756;SDS011;45631;51.962;5.974;2023-07-30T00:50:39;7.55;;;3.15;;
59756;SDS011;45631;51.962;5.974;2023-07-30T00:53:08;10.55;;;3.33;;
59756;SDS011;45631;51.962;5.974;2023-07-30T00:55:39;7.88;;;3.20;;
59756;SDS011;45631;51.962;5.974;2023-07-30T00:58:09;9.20;;;3.08;;
59756;SDS011;45631;51.962;5.974;2023-07-30T01:00:38;11.68;;;3.15;;
59756;SDS011;45631;51.962;5.974;2023-07-30T01:03:07;9.32;;;3.65;;
59756;SDS011;45631;51.962;5.974;2023-07-30T01:05:36;11.73;;;3.55;;
59756;SDS011;45631;51.962;5.974;2023-07-30T01:08:07;10.38;;;3.45;;
59756;SDS011;45631;51.962;5.974;2023-07-30T01:10:38;11.57;;;3.80;;
59756;SDS011;45631;51.962;5.974;2023-07-30T01:13:10;13.35;;;3.95;;
59756;SDS011;45631;51.962;5.974;2023-07-30T01:15:40;11.45;;;3.88;;
59756;SDS011;45631;51.962;5.974;2023-07-30T01:18:10;12.98;;;4.13;;
59756;SDS011;45631;51.962;5.974;2023-07-30T01:20:38;8.73;;;3.55;;
59756;SDS011;45631;51.962;5.974;2023-07-30T01:23:09;10.07;;;3.80;;
59756;SDS011;45631;51.962;5.974;2023-07-30T01:25:37;12.10;;;3.88;;
59756;SDS011;45631;51.962;5.974;2023-07-30T01:28:08;10.02;;;3.70;;
59756;SDS011;45631;51.962;5.974;2023-07-30T01:30:40;11.23;;;3.95;;
59756;SDS011;45631;51.962;5.974;2023-07-30T01:33:09;9.73;;;3.50;;
59756;SDS011;45631;51.962;5.974;2023-07-30T01:35:39;9.80;;;3.65;;
59756;SDS011;45631;51.962;5.974;2023-07-30T01:38:12;10.63;;;3.80;;
59756;SDS011;45631;51.962;5.974;2023-07-30T01:40:41;8.13;;;3.50;;
59756;SDS011;45631;51.962;5.974;2023-07-30T01:43:10;10.50;;;4.47;;
59756;SDS011;45631;51.962;5.974;2023-07-30T01:45:38;8.48;;;3.85;;
59756;SDS011;45631;51.962;5.974;2023-07-30T01:48:07;11.02;;;3.83;;
59756;SDS011;45631;51.962;5.974;2023-07-30T01:50:36;9.73;;;3.60;;
59756;SDS011;45631;51.962;5.974;2023-07-30T01:53:04;9.43;;;3.45;;
59756;SDS011;45631;51.962;5.974;2023-07-30T01:55:34;8.27;;;4.25;;
59756;SDS011;45631;51.962;5.974;2023-07-30T01:58:05;11.68;;;4.25;;
59756;SDS011;45631;51.962;5.974;2023-07-30T02:00:34;12.57;;;3.78;;
59756;SDS011;45631;51.962;5.974;2023-07-30T02:03:02;16.90;;;4.15;;
59756;SDS011;45631;51.962;5.974;2023-07-30T02:05:31;10.57;;;4.22;;
59756;SDS011;45631;51.962;5.974;2023-07-30T02:07:59;11.85;;;4.03;;
59756;SDS011;45631;51.962;5.974;2023-07-30T02:10:28;11.77;;;4.22;;
59756;SDS011;45631;51.962;5.974;2023-07-30T02:12:58;11.57;;;4.15;;
59756;SDS011;45631;51.962;5.974;2023-07-30T02:15:26;8.75;;;3.88;;
59756;SDS011;45631;51.962;5.974;2023-07-30T02:17:54;11.27;;;3.88;;
59756;SDS011;45631;51.962;5.974;2023-07-30T02:20:23;10.00;;;3.85;;
59756;SDS011;45631;51.962;5.974;2023-07-30T02:22:51;12.90;;;4.35;;
59756;SDS011;45631;51.962;5.974;2023-07-30T02:25:20;11.43;;;4.40;;
59756;SDS011;45631;51.962;5.974;2023-07-30T02:27:48;14.55;;;4.40;;
59756;SDS011;45631;51.962;5.974;2023-07-30T02:30:18;8.30;;;3.47;;
59756;SDS011;45631;51.962;5.974;2023-07-30T02:32:46;10.70;;;3.95;;
59756;SDS011;45631;51.962;5.974;2023-07-30T02:35:17;11.45;;;4.10;;
59756;SDS011;45631;51.962;5.974;2023-07-30T02:37:45;13.85;;;4.38;;
59756;SDS011;45631;51.962;5.974;2023-07-30T02:40:15;11.23;;;4.53;;
59756;SDS011;45631;51.962;5.974;2023-07-30T02:42:43;12.25;;;4.07;;
59756;SDS011;45631;51.962;5.974;2023-07-30T02:45:12;15.63;;;4.32;;
59756;SDS011;45631;51.962;5.974;2023-07-30T02:47:42;14.05;;;4.00;;
59756;SDS011;45631;51.962;5.974;2023-07-30T02:50:10;13.02;;;4.28;;
59756;SDS011;45631;51.962;5.974;2023-07-30T02:52:39;13.57;;;4.40;;
59756;SDS011;45631;51.962;5.974;2023-07-30T02:55:07;12.98;;;4.18;;
59756;SDS011;45631;51.962;5.974;2023-07-30T02:57:36;12.45;;;4.70;;
59756;SDS011;45631;51.962;5.974;2023-07-30T03:00:05;13.15;;;5.00;;
59756;SDS011;45631;51.962;5.974;2023-07-30T03:02:35;11.98;;;4.45;;
59756;SDS011;45631;51.962;5.974;2023-07-30T03:05:05;11.80;;;4.70;;
59756;SDS011;45631;51.962;5.974;2023-07-30T03:07:34;15.05;;;5.07;;
59756;SDS011;45631;51.962;5.974;2023-07-30T03:10:03;16.77;;;4.88;;
59756;SDS011;45631;51.962;5.974;2023-07-30T03:12:32;13.73;;;4.80;;
59756;SDS011;45631;51.962;5.974;2023-07-30T03:15:00;14.00;;;5.25;;
59756;SDS011;45631;51.962;5.974;2023-07-30T03:17:28;12.07;;;4.63;;
59756;SDS011;45631;51.962;5.974;2023-07-30T03:19:57;14.07;;;5.32;;
59756;SDS011;45631;51.962;5.974;2023-07-30T03:22:27;20.00;;;5.80;;
59756;SDS011;45631;51.962;5.974;2023-07-30T03:24:55;14.82;;;6.05;;
59756;SDS011;45631;51.962;5.974;2023-07-30T03:27:24;16.63;;;6.63;;
59756;SDS011;45631;51.962;5.974;2023-07-30T03:29:52;15.95;;;5.85;;
59756;SDS011;45631;51.962;5.974;2023-07-30T03:32:20;15.20;;;5.43;;
59756;SDS011;45631;51.962;5.974;2023-07-30T03:34:49;19.38;;;6.70;;
59756;SDS011;45631;51.962;5.974;2023-07-30T03:37:17;19.52;;;5.75;;
59756;SDS011;45631;51.962;5.974;2023-07-30T03:39:47;15.85;;;5.72;;
59756;SDS011;45631;51.962;5.974;2023-07-30T03:42:15;15.85;;;6.63;;
59756;SDS011;45631;51.962;5.974;2023-07-30T03:44:44;20.77;;;7.70;;
59756;SDS011;45631;51.962;5.974;2023-07-30T03:47:12;19.30;;;6.43;;
59756;SDS011;45631;51.962;5.974;2023-07-30T03:49:41;16.17;;;6.35;;
59756;SDS011;45631;51.962;5.974;2023-07-30T03:52:09;16.13;;;5.88;;
59756;SDS011;45631;51.962;5.974;2023-07-30T03:54:38;15.38;;;6.70;;
59756;SDS011;45631;51.962;5.974;2023-07-30T03:57:08;21.02;;;7.30;;
59756;SDS011;45631;51.962;5.974;2023-07-30T03:59:36;17.67;;;6.68;;
59756;SDS011;45631;51.962;5.974;2023-07-30T04:02:05;19.00;;;6.80;;
59756;SDS011;45631;51.962;5.974;2023-07-30T04:04:33;17.17;;;6.95;;
59756;SDS011;45631;51.962;5.974;2023-07-30T04:07:02;16.05;;;6.43;;
59756;SDS011;45631;51.962;5.974;2023-07-30T04:09:30;16.35;;;6.57;;
59756;SDS011;45631;51.962;5.974;2023-07-30T04:11:59;15.50;;;6.85;;
59756;SDS011;45631;51.962;5.974;2023-07-30T04:14:28;21.98;;;7.68;;
59756;SDS011;45631;51.962;5.974;2023-07-30T04:16:57;20.58;;;8.10;;
59756;SDS011;45631;51.962;5.974;2023-07-30T04:19:25;19.65;;;7.80;;
59756;SDS011;45631;51.962;5.974;2023-07-30T04:21:54;19.35;;;7.90;;
59756;SDS011;45631;51.962;5.974;2023-07-30T04:24:22;20.92;;;7.53;;
59756;SDS011;45631;51.962;5.974;2023-07-30T04:26:52;18.02;;;7.78;;
59756;SDS011;45631;51.962;5.974;2023-07-30T04:29:21;21.00;;;8.02;;
59756;SDS011;45631;51.962;5.974;2023-07-30T04:31:50;19.73;;;7.88;;
59756;SDS011;45631;51.962;5.974;2023-07-30T04:34:19;19.80;;;7.28;;
59756;SDS011;45631;51.962;5.974;2023-07-30T04:36:47;20.05;;;8.52;;
59756;SDS011;45631;51.962;5.974;2023-07-30T04:39:16;18.48;;;8.18;;
59756;SDS011;45631;51.962;5.974;2023-07-30T04:41:44;22.80;;;8.52;;
59756;SDS011;45631;51.962;5.974;2023-07-30T04:44:13;18.77;;;8.35;;
59756;SDS011;45631;51.962;5.974;2023-07-30T04:46:41;25.65;;;8.93;;
59756;SDS011;45631;51.962;5.974;2023-07-30T04:49:11;23.17;;;8.63;;
59756;SDS011;45631;51.962;5.974;2023-07-30T04:51:39;27.75;;;9.10;;
59756;SDS011;45631;51.962;5.974;2023-07-30T04:54:08;24.50;;;9.40;;
59756;SDS011;45631;51.962;5.974;2023-07-30T04:56:36;21.92;;;8.57;;
59756;SDS011;45631;51.962;5.974;2023-07-30T04:59:05;23.02;;;8.38;;
59756;SDS011;45631;51.962;5.974;2023-07-30T05:01:33;20.80;;;8.68;;
59756;SDS011;45631;51.962;5.974;2023-07-30T05:04:02;23.88;;;8.82;;
59756;SDS011;45631;51.962;5.974;2023-07-30T05:06:32;18.88;;;8.95;;
59756;SDS011;45631;51.962;5.974;2023-07-30T05:09:00;26.48;;;9.18;;
59756;SDS011;45631;51.962;5.974;2023-07-30T05:11:29;24.23;;;9.63;;
59756;SDS011;45631;51.962;5.974;2023-07-30T05:13:59;22.10;;;10.10;;
59756;SDS011;45631;51.962;5.974;2023-07-30T05:16:28;22.65;;;8.77;;
59756;SDS011;45631;51.962;5.974;2023-07-30T05:18:56;29.80;;;10.18;;
59756;SDS011;45631;51.962;5.974;2023-07-30T05:21:25;22.10;;;9.73;;
59756;SDS011;45631;51.962;5.974;2023-07-30T05:23:55;24.60;;;10.25;;
59756;SDS011;45631;51.962;5.974;2023-07-30T05:26:23;25.27;;;10.70;;
59756;SDS011;45631;51.962;5.974;2023-07-30T05:28:51;22.15;;;9.95;;
59756;SDS011;45631;51.962;5.974;2023-07-30T05:31:20;23.25;;;9.95;;
59756;SDS011;45631;51.962;5.974;2023-07-30T05:33:48;26.52;;;10.45;;
59756;SDS011;45631;51.962;5.974;2023-07-30T05:36:17;21.83;;;9.45;;
59756;SDS011;45631;51.962;5.974;2023-07-30T05:38:45;22.08;;;9.90;;
59756;SDS011;45631;51.962;5.974;2023-07-30T05:41:15;21.02;;;9.85;;
59756;SDS011;45631;51.962;5.974;2023-07-30T05:43:43;24.25;;;10.80;;
59756;SDS011;45631;51.962;5.974;2023-07-30T05:46:12;22.42;;;10.18;;
59756;SDS011;45631;51.962;5.974;2023-07-30T05:48:40;29.70;;;11.57;;
59756;SDS011;45631;51.962;5.974;2023-07-30T05:51:08;25.58;;;10.90;;
59756;SDS011;45631;51.962;5.974;2023-07-30T05:53:37;29.55;;;11.07;;
59756;SDS011;45631;51.962;5.974;2023-07-30T05:56:05;24.65;;;10.73;;
59756;SDS011;45631;51.962;5.974;2023-07-30T05:58:35;27.23;;;10.85;;
59756;SDS011;45631;51.962;5.974;2023-07-30T06:01:03;24.08;;;11.57;;
59756;SDS011;45631;51.962;5.974;2023-07-30T06:03:32;24.45;;;11.25;;
59756;SDS011;45631;51.962;5.974;2023-07-30T06:06:00;22.88;;;10.75;;
59756;SDS011;45631;51.962;5.974;2023-07-30T06:08:29;28.80;;;11.43;;
59756;SDS011;45631;51.962;5.974;2023-07-30T06:11:00;28.52;;;11.90;;
59756;SDS011;45631;51.962;5.974;2023-07-30T06:13:29;26.20;;;10.13;;
59756;SDS011;45631;51.962;5.974;2023-07-30T06:15:59;26.55;;;11.30;;
59756;SDS011;45631;51.962;5.974;2023-07-30T06:18:28;26.75;;;10.80;;
59756;SDS011;45631;51.962;5.974;2023-07-30T06:20:56;21.58;;;10.82;;
59756;SDS011;45631;51.962;5.974;2023-07-30T06:23:25;24.35;;;11.00;;
59756;SDS011;45631;51.962;5.974;2023-07-30T06:25:53;23.98;;;10.90;;
59756;SDS011;45631;51.962;5.974;2023-07-30T06:28:21;21.92;;;10.50;;
59756;SDS011;45631;51.962;5.974;2023-07-30T06:30:50;26.70;;;10.98;;
59756;SDS011;45631;51.962;5.974;2023-07-30T06:33:20;22.52;;;9.93;;
59756;SDS011;45631;51.962;5.974;2023-07-30T06:35:51;27.80;;;10.07;;
59756;SDS011;45631;51.962;5.974;2023-07-30T06:38:20;26.02;;;11.52;;
59756;SDS011;45631;51.962;5.974;2023-07-30T06:40:48;21.48;;;10.00;;
59756;SDS011;45631;51.962;5.974;2023-07-30T06:43:16;20.80;;;9.27;;
59756;SDS011;45631;51.962;5.974;2023-07-30T06:45:45;23.30;;;10.95;;
59756;SDS011;45631;51.962;5.974;2023-07-30T06:48:13;24.75;;;10.27;;
59756;SDS011;45631;51.962;5.974;2023-07-30T06:50:43;24.88;;;10.30;;
59756;SDS011;45631;51.962;5.974;2023-07-30T06:53:11;22.80;;;9.60;;
59756;SDS011;45631;51.962;5.974;2023-07-30T06:55:40;18.83;;;9.10;;
59756;SDS011;45631;51.962;5.974;2023-07-30T06:58:08;18.52;;;9.07;;
59756;SDS011;45631;51.962;5.974;2023-07-30T07:00:37;24.42;;;9.80;;
59756;SDS011;45631;51.962;5.974;2023-07-30T07:03:06;21.17;;;9.02;;
59756;SDS011;45631;51.962;5.974;2023-07-30T07:05:34;27.75;;;10.48;;
59756;SDS011;45631;51.962;5.974;2023-07-30T07:08:04;21.20;;;9.90;;
59756;SDS011;45631;51.962;5.974;2023-07-30T07:10:32;24.40;;;9.93;;
59756;SDS011;45631;51.962;5.974;2023-07-30T07:13:00;22.75;;;9.98;;
59756;SDS011;45631;51.962;5.974;2023-07-30T07:15:29;19.08;;;9.80;;
59756;SDS011;45631;51.962;5.974;2023-07-30T07:17:57;21.98;;;10.57;;
59756;SDS011;45631;51.962;5.974;2023-07-30T07:20:26;22.67;;;9.98;;
59756;SDS011;45631;51.962;5.974;2023-07-30T07:22:54;25.33;;;10.32;;
59756;SDS011;45631;51.962;5.974;2023-07-30T07:25:24;20.17;;;10.23;;
59756;SDS011;45631;51.962;5.974;2023-07-30T07:27:54;26.05;;;10.35;;
59756;SDS011;45631;51.962;5.974;2023-07-30T07:30:22;18.83;;;9.40;;
59756;SDS011;45631;51.962;5.974;2023-07-30T07:32:52;23.45;;;9.77;;
59756;SDS011;45631;51.962;5.974;2023-07-30T07:35:22;24.38;;;10.10;;
59756;SDS011;45631;51.962;5.974;2023-07-30T07:37:50;20.92;;;9.95;;
59756;SDS011;45631;51.962;5.974;2023-07-30T07:40:18;20.02;;;9.00;;
59756;SDS011;45631;51.962;5.974;2023-07-30T07:42:48;20.02;;;9.35;;
59756;SDS011;45631;51.962;5.974;2023-07-30T07:45:16;23.55;;;9.45;;
59756;SDS011;45631;51.962;5.974;2023-07-30T07:47:45;23.50;;;9.25;;
59756;SDS011;45631;51.962;5.974;2023-07-30T07:50:13;23.40;;;8.70;;
59756;SDS011;45631;51.962;5.974;2023-07-30T07:52:42;16.83;;;7.30;;
59756;SDS011;45631;51.962;5.974;2023-07-30T07:55:10;19.02;;;7.53;;
59756;SDS011;45631;51.962;5.974;2023-07-30T07:57:39;16.17;;;5.78;;
59756;SDS011;45631;51.962;5.974;2023-07-30T08:00:09;16.73;;;5.57;;
59756;SDS011;45631;51.962;5.974;2023-07-30T08:02:38;19.20;;;6.28;;
59756;SDS011;45631;51.962;5.974;2023-07-30T08:05:07;14.68;;;5.60;;
59756;SDS011;45631;51.962;5.974;2023-07-30T08:07:35;13.75;;;5.60;;
59756;SDS011;45631;51.962;5.974;2023-07-30T08:10:04;16.17;;;6.13;;
59756;SDS011;45631;51.962;5.974;2023-07-30T08:12:33;15.63;;;5.55;;
59756;SDS011;45631;51.962;5.974;2023-07-30T08:15:02;18.95;;;5.88;;
59756;SDS011;45631;51.962;5.974;2023-07-30T08:17:32;16.63;;;5.97;;
59756;SDS011;45631;51.962;5.974;2023-07-30T08:20:00;17.90;;;5.78;;
59756;SDS011;45631;51.962;5.974;2023-07-30T08:22:28;18.00;;;5.25;;
59756;SDS011;45631;51.962;5.974;2023-07-30T08:24:57;16.48;;;5.57;;
59756;SDS011;45631;51.962;5.974;2023-07-30T08:27:25;14.40;;;4.68;;
59756;SDS011;45631;51.962;5.974;2023-07-30T08:29:54;20.08;;;5.65;;
59756;SDS011;45631;51.962;5.974;2023-07-30T08:32:22;15.65;;;5.72;;
59756;SDS011;45631;51.962;5.974;2023-07-30T08:34:52;16.35;;;5.30;;
59756;SDS011;45631;51.962;5.974;2023-07-30T08:37:20;18.08;;;5.25;;
59756;SDS011;45631;51.962;5.974;2023-07-30T08:39:50;16.92;;;5.68;;
59756;SDS011;45631;51.962;5.974;2023-07-30T08:42:18;15.50;;;5.57;;
59756;SDS011;45631;51.962;5.974;2023-07-30T08:44:46;18.52;;;6.82;;
59756;SDS011;45631;51.962;5.974;2023-07-30T08:47:15;16.42;;;4.80;;
59756;SDS011;45631;51.962;5.974;2023-07-30T08:49:43;17.58;;;5.38;;
59756;SDS011;45631;51.962;5.974;2023-07-30T08:52:13;15.25;;;5.18;;
59756;SDS011;45631;51.962;5.974;2023-07-30T08:57:18;14.63;;;4.95;;
59756;SDS011;45631;51.962;5.974;2023-07-30T08:59:47;12.63;;;4.32;;
59756;SDS011;45631;51.962;5.974;2023-07-30T09:02:21;16.33;;;4.63;;
59756;SDS011;45631;51.962;5.974;2023-07-30T09:04:55;17.83;;;5.07;;
59756;SDS011;45631;51.962;5.974;2023-07-30T09:07:27;12.53;;;3.70;;
59756;SDS011;45631;51.962;5.974;2023-07-30T09:09:55;15.50;;;4.78;;
59756;SDS011;45631;51.962;5.974;2023-07-30T09:12:28;15.40;;;4.35;;
59756;SDS011;45631;51.962;5.974;2023-07-30T09:14:58;11.68;;;4.03;;
59756;SDS011;45631;51.962;5.974;2023-07-30T09:17:26;13.27;;;4.00;;
59756;SDS011;45631;51.962;5.974;2023-07-30T09:19:55;13.77;;;4.00;;
59756;SDS011;45631;51.962;5.974;2023-07-30T09:22:28;12.43;;;3.83;;
59756;SDS011;45631;51.962;5.974;2023-07-30T09:25:01;13.10;;;4.03;;
59756;SDS011;45631;51.962;5.974;2023-07-30T09:27:31;12.65;;;4.35;;
59756;SDS011;45631;51.962;5.974;2023-07-30T09:30:00;15.45;;;3.80;;
59756;SDS011;45631;51.962;5.974;2023-07-30T09:32:31;14.23;;;3.53;;
59756;SDS011;45631;51.962;5.974;2023-07-30T09:35:04;15.20;;;3.63;;
59756;SDS011;45631;51.962;5.974;2023-07-30T09:37:37;14.05;;;3.10;;
59756;SDS011;45631;51.962;5.974;2023-07-30T09:40:08;13.30;;;3.45;;
59756;SDS011;45631;51.962;5.974;2023-07-30T09:42:38;16.98;;;3.25;;
59756;SDS011;45631;51.962;5.974;2023-07-30T09:45:16;14.18;;;3.28;;
59756;SDS011;45631;51.962;5.974;2023-07-30T09:47:48;14.45;;;3.53;;
59756;SDS011;45631;51.962;5.974;2023-07-30T09:50:17;11.02;;;3.40;;
59756;SDS011;45631;51.962;5.974;2023-07-30T09:52:47;16.98;;;3.47;;
59756;SDS011;45631;51.962;5.974;2023-07-30T09:55:17;14.48;;;3.17;;
59756;SDS011;45631;51.962;5.974;2023-07-30T09:57:46;12.40;;;3.38;;
59756;SDS011;45631;51.962;5.974;2023-07-30T10:00:14;16.20;;;3.17;;
59756;SDS011;45631;51.962;5.974;2023-07-30T10:02:45;14.07;;;3.30;;
59756;SDS011;45631;51.962;5.974;2023-07-30T10:05:15;14.88;;;3.72;;
59756;SDS011;45631;51.962;5.974;2023-07-30T10:07:49;10.13;;;2.78;;
59756;SDS011;45631;51.962;5.974;2023-07-30T10:10:24;13.57;;;2.92;;
59756;SDS011;45631;51.962;5.974;2023-07-30T10:12:53;12.68;;;3.50;;
59756;SDS011;45631;51.962;5.974;2023-07-30T10:15:25;12.40;;;3.00;;
59756;SDS011;45631;51.962;5.974;2023-07-30T10:17:55;12.07;;;3.00;;
59756;SDS011;45631;51.962;5.974;2023-07-30T10:20:30;9.93;;;2.72;;
59756;SDS011;45631;51.962;5.974;2023-07-30T10:23:01;11.05;;;2.97;;
59756;SDS011;45631;51.962;5.974;2023-07-30T10:25:41;9.07;;;2.40;;
59756;SDS011;45631;51.962;5.974;2023-07-30T10:28:25;9.65;;;2.60;;
59756;SDS011;45631;51.962;5.974;2023-07-30T10:30:55;9.07;;;2.30;;
59756;SDS011;45631;51.962;5.974;2023-07-30T10:33:27;10.38;;;2.15;;
59756;SDS011;45631;51.962;5.974;2023-07-30T10:36:12;11.05;;;2.40;;
59756;SDS011;45631;51.962;5.974;2023-07-30T10:38:42;10.48;;;2.40;;
59756;SDS011;45631;51.962;5.974;2023-07-30T10:41:12;8.15;;;2.08;;
59756;SDS011;45631;51.962;5.974;2023-07-30T10:46:12;8.68;;;1.75;;
59756;SDS011;45631;51.962;5.974;2023-07-30T10:48:42;10.63;;;2.00;;
59756;SDS011;45631;51.962;5.974;2023-07-30T10:51:12;7.82;;;1.75;;
59756;SDS011;45631;51.962;5.974;2023-07-30T10:53:43;9.18;;;1.95;;
59756;SDS011;45631;51.962;5.974;2023-07-30T10:56:12;6.47;;;1.40;;
59756;SDS011;45631;51.962;5.974;2023-07-30T10:58:41;9.93;;;1.67;;
59756;SDS011;45631;51.962;5.974;2023-07-30T11:01:11;7.85;;;1.83;;
59756;SDS011;45631;51.962;5.974;2023-07-30T11:03:40;5.82;;;1.50;;
59756;SDS011;45631;51.962;5.974;2023-07-30T11:06:09;8.23;;;1.73;;
59756;SDS011;45631;51.962;5.974;2023-07-30T11:08:37;8.38;;;1.60;;
59756;SDS011;45631;51.962;5.974;2023-07-30T11:11:09;6.40;;;1.83;;
59756;SDS011;45631;51.962;5.974;2023-07-30T11:13:38;10.68;;;1.65;;
59756;SDS011;45631;51.962;5.974;2023-07-30T11:16:08;7.30;;;1.55;;
59756;SDS011;45631;51.962;5.974;2023-07-30T11:18:38;8.65;;;1.83;;
59756;SDS011;45631;51.962;5.974;2023-07-30T11:21:08;8.77;;;1.60;;
59756;SDS011;45631;51.962;5.974;2023-07-30T11:23:38;6.65;;;1.60;;
59756;SDS011;45631;51.962;5.974;2023-07-30T11:26:12;7.95;;;1.75;;
59756;SDS011;45631;51.962;5.974;2023-07-30T11:28:41;8.13;;;1.90;;
59756;SDS011;45631;51.962;5.974;2023-07-30T11:31:11;6.22;;;1.40;;
59756;SDS011;45631;51.962;5.974;2023-07-30T11:33:41;6.78;;;1.60;;
59756;SDS011;45631;51.962;5.974;2023-07-30T11:36:12;8.05;;;1.65;;
59756;SDS011;45631;51.962;5.974;2023-07-30T11:38:43;7.05;;;1.50;;
59756;SDS011;45631;51.962;5.974;2023-07-30T11:41:14;8.45;;;1.90;;
59756;SDS011;45631;51.962;5.974;2023-07-30T11:43:43;7.47;;;1.80;;
59756;SDS011;45631;51.962;5.974;2023-07-30T11:46:13;8.18;;;1.80;;
59756;SDS011;45631;51.962;5.974;2023-07-30T11:48:43;6.88;;;1.52;;
59756;SDS011;45631;51.962;5.974;2023-07-30T11:51:20;6.60;;;1.67;;
59756;SDS011;45631;51.962;5.974;2023-07-30T11:53:50;6.18;;;1.63;;
59756;SDS011;45631;51.962;5.974;2023-07-30T11:56:22;6.13;;;1.30;;
59756;SDS011;45631;51.962;5.974;2023-07-30T11:58:54;7.78;;;1.70;;
59756;SDS011;45631;51.962;5.974;2023-07-30T12:01:24;8.80;;;1.83;;
59756;SDS011;45631;51.962;5.974;2023-07-30T12:03:54;9.77;;;2.08;;
59756;SDS011;45631;51.962;5.974;2023-07-30T12:06:23;10.65;;;1.90;;
59756;SDS011;45631;51.962;5.974;2023-07-30T12:08:51;10.90;;;1.77;;
59756;SDS011;45631;51.962;5.974;2023-07-30T12:11:19;9.20;;;1.70;;
59756;SDS011;45631;51.962;5.974;2023-07-30T12:13:51;6.90;;;1.50;;
59756;SDS011;45631;51.962;5.974;2023-07-30T12:16:20;6.57;;;1.50;;
59756;SDS011;45631;51.962;5.974;2023-07-30T12:18:48;8.02;;;2.03;;
59756;SDS011;45631;51.962;5.974;2023-07-30T12:21:16;8.13;;;1.52;;
59756;SDS011;45631;51.962;5.974;2023-07-30T12:23:45;9.05;;;1.92;;
59756;SDS011;45631;51.962;5.974;2023-07-30T12:26:14;8.27;;;1.73;;
59756;SDS011;45631;51.962;5.974;2023-07-30T12:28:44;6.78;;;1.40;;
59756;SDS011;45631;51.962;5.974;2023-07-30T12:31:12;7.18;;;1.50;;
59756;SDS011;45631;51.962;5.974;2023-07-30T12:33:41;10.50;;;2.13;;
59756;SDS011;45631;51.962;5.974;2023-07-30T12:36:09;7.63;;;1.73;;
59756;SDS011;45631;51.962;5.974;2023-07-30T12:38:38;5.95;;;1.20;;
59756;SDS011;45631;51.962;5.974;2023-07-30T12:41:06;7.40;;;1.33;;
59756;SDS011;45631;51.962;5.974;2023-07-30T12:43:35;6.78;;;1.20;;
59756;SDS011;45631;51.962;5.974;2023-07-30T12:46:04;8.38;;;1.95;;
59756;SDS011;45631;51.962;5.974;2023-07-30T12:48:33;4.97;;;1.15;;
59756;SDS011;45631;51.962;5.974;2023-07-30T12:51:02;8.10;;;1.52;;
59756;SDS011;45631;51.962;5.974;2023-07-30T12:53:30;5.57;;;1.15;;
59756;SDS011;45631;51.962;5.974;2023-07-30T12:55:58;6.93;;;1.58;;
59756;SDS011;45631;51.962;5.974;2023-07-30T12:58:27;6.95;;;1.23;;
59756;SDS011;45631;51.962;5.974;2023-07-30T13:00:55;8.43;;;1.40;;
59756;SDS011;45631;51.962;5.974;2023-07-30T13:03:25;6.18;;;1.38;;
59756;SDS011;45631;51.962;5.974;2023-07-30T13:05:53;7.60;;;1.73;;
59756;SDS011;45631;51.962;5.974;2023-07-30T13:08:22;6.28;;;1.10;;
59756;SDS011;45631;51.962;5.974;2023-07-30T13:10:50;9.18;;;1.60;;
59756;SDS011;45631;51.962;5.974;2023-07-30T13:13:19;8.38;;;1.30;;
59756;SDS011;45631;51.962;5.974;2023-07-30T13:15:47;6.20;;;1.10;;
59756;SDS011;45631;51.962;5.974;2023-07-30T13:18:15;7.97;;;1.50;;
59756;SDS011;45631;51.962;5.974;2023-07-30T13:20:45;5.90;;;1.15;;
59756;SDS011;45631;51.962;5.974;2023-07-30T13:23:14;7.40;;;1.48;;
59756;SDS011;45631;51.962;5.974;2023-07-30T13:25:42;5.75;;;1.30;;
59756;SDS011;45631;51.962;5.974;2023-07-30T13:28:10;8.07;;;1.30;;
59756;SDS011;45631;51.962;5.974;2023-07-30T13:30:39;4.35;;;1.02;;
59756;SDS011;45631;51.962;5.974;2023-07-30T13:33:07;6.53;;;1.35;;
59756;SDS011;45631;51.962;5.974;2023-07-30T13:35:36;4.00;;;0.95;;
59756;SDS011;45631;51.962;5.974;2023-07-30T13:38:06;5.95;;;1.20;;
59756;SDS011;45631;51.962;5.974;2023-07-30T13:40:34;4.80;;;1.10;;
59756;SDS011;45631;51.962;5.974;2023-07-30T13:43:03;6.03;;;1.15;;
59756;SDS011;45631;51.962;5.974;2023-07-30T13:45:31;7.90;;;1.52;;
59756;SDS011;45631;51.962;5.974;2023-07-30T13:47:59;6.60;;;1.35;;
59756;SDS011;45631;51.962;5.974;2023-07-30T13:50:28;5.35;;;0.98;;
59756;SDS011;45631;51.962;5.974;2023-07-30T13:52:56;4.40;;;1.05;;
59756;SDS011;45631;51.962;5.974;2023-07-30T13:55:26;3.30;;;1.00;;
59756;SDS011;45631;51.962;5.974;2023-07-30T13:57:55;5.20;;;1.00;;
59756;SDS011;45631;51.962;5.974;2023-07-30T14:00:23;4.13;;;1.00;;
59756;SDS011;45631;51.962;5.974;2023-07-30T14:02:51;5.50;;;0.88;;
59756;SDS011;45631;51.962;5.974;2023-07-30T14:05:20;4.68;;;1.10;;
59756;SDS011;45631;51.962;5.974;2023-07-30T14:07:49;4.05;;;0.80;;
59756;SDS011;45631;51.962;5.974;2023-07-30T14:10:20;2.57;;;0.70;;
59756;SDS011;45631;51.962;5.974;2023-07-30T14:12:50;2.97;;;0.80;;
59756;SDS011;45631;51.962;5.974;2023-07-30T14:15:19;3.30;;;1.10;;
59756;SDS011;45631;51.962;5.974;2023-07-30T14:17:47;4.53;;;1.30;;
59756;SDS011;45631;51.962;5.974;2023-07-30T14:20:17;4.47;;;1.02;;
59756;SDS011;45631;51.962;5.974;2023-07-30T14:22:45;4.13;;;1.20;;
59756;SDS011;45631;51.962;5.974;2023-07-30T14:25:15;5.25;;;1.10;;
59756;SDS011;45631;51.962;5.974;2023-07-30T14:27:43;4.50;;;0.80;;
59756;SDS011;45631;51.962;5.974;2023-07-30T14:30:13;5.32;;;1.00;;
59756;SDS011;45631;51.962;5.974;2023-07-30T14:32:41;3.67;;;1.05;;
59756;SDS011;45631;51.962;5.974;2023-07-30T14:35:10;2.83;;;0.77;;
59756;SDS011;45631;51.962;5.974;2023-07-30T14:37:38;9.15;;;1.30;;
59756;SDS011;45631;51.962;5.974;2023-07-30T14:40:07;5.25;;;1.40;;
59756;SDS011;45631;51.962;5.974;2023-07-30T14:42:36;7.72;;;1.10;;
59756;SDS011;45631;51.962;5.974;2023-07-30T14:45:07;5.80;;;1.02;;
59756;SDS011;45631;51.962;5.974;2023-07-30T14:47:37;6.22;;;1.60;;
59756;SDS011;45631;51.962;5.974;2023-07-30T14:50:06;5.47;;;1.23;;
59756;SDS011;45631;51.962;5.974;2023-07-30T14:52:35;8.52;;;1.80;;
59756;SDS011;45631;51.962;5.974;2023-07-30T14:55:03;5.72;;;1.33;;